Погода Гази Бабена 2 недели

Скопье, Македония

13 - 26 июля
  • 13июля
    Сегодня
    +19°
    +40°
    Практически безоблачно
    ВремяПогодаТемператураВлажностьДавлениеВетер, м/сВероятность осадков
    02:00Ясно и безоблачно+22°C37 %737 мм0.6 м/с2 %
    05:00Ясно и безоблачно+20°C40 %737 мм0.4 м/с2 %
    08:00Ясно и безоблачно+27°C39 %738 мм0.0 м/с2 %
    11:00Ясно и безоблачно+33°C32 %738 мм0.4 м/с2 %
    14:00Практически безоблачно+39°C23 %737 мм1.3 м/с2 %
    17:00Практически безоблачно+40°C22 %736 мм2.6 м/с2 %
    20:00Практически безоблачно+34°C38 %736 мм2.9 м/с2 %
    23:00Ясно и безоблачно+26°C41 %736 мм0.7 м/с2 %
  • 14июля
    Воскресенье
    +20°
    +41°
    Ясно и безоблачно
    ВремяПогодаТемператураВлажностьДавлениеВетер, м/сВероятность осадков
    02:00Ясно и безоблачно+22°C49 %737 мм0.6 м/с2 %
    05:00Ясно и безоблачно+20°C45 %737 мм0.5 м/с2 %
    08:00Ясно и безоблачно+27°C41 %738 мм0.0 м/с2 %
    11:00Ясно и безоблачно+34°C31 %738 мм0.5 м/с2 %
    14:00Ясно и безоблачно+39°C23 %737 мм1.5 м/с2 %
    17:00Небольшая облачность+40°C25 %737 мм3.5 м/с5 %
    20:00Ясно и безоблачно+34°C40 %737 мм3.3 м/с2 %
    23:00Ясно и безоблачно+27°C53 %737 мм0.8 м/с2 %
  • 15июля
    Понедельник
    +19°
    +41°
    Ясно и безоблачно
    ВремяПогодаТемператураВлажностьДавлениеВетер, м/сВероятность осадков
    02:00Ясно и безоблачно+23°C63 %737 мм0.4 м/с2 %
    05:00Ясно и безоблачно+20°C57 %737 мм0.6 м/с2 %
    08:00Ясно и безоблачно+28°C43 %739 мм0.0 м/с2 %
    11:00Ясно и безоблачно+35°C25 %739 мм1.0 м/с2 %
    14:00Ясно и безоблачно+40°C18 %738 мм2.1 м/с2 %
    17:00Практически безоблачно+41°C18 %737 мм4.1 м/с2 %
    20:00Ясно и безоблачно+35°C32 %737 мм3.7 м/с2 %
    23:00Ясно и безоблачно+27°C38 %737 мм0.7 м/с2 %
  • 16июля
    Вторник
    +18°
    +41°
    Облачно с прояснениями
    ВремяПогодаТемператураВлажностьДавлениеВетер, м/сВероятность осадков
    02:00Ясно и безоблачно+23°C43 %737 мм0.5 м/с2 %
    05:00Ясно и безоблачно+20°C40 %738 мм0.6 м/с2 %
    08:00Ясно и безоблачно+27°C38 %739 мм0.1 м/с2 %
    11:00Практически безоблачно+35°C26 %739 мм0.7 м/с2 %
    14:00Облачно с прояснениями+40°C13 %738 мм1.2 м/с2 %
    17:00Ясно и безоблачно+41°C13 %737 мм2.4 м/с2 %
    20:00Практически безоблачно+35°C18 %736 мм2.6 м/с2 %
    23:00Ясно и безоблачно+27°C27 %737 мм0.7 м/с2 %
  • 17июля
    Среда
    +21°
    +43°
    Практически безоблачно
    ВремяПогодаТемператураВлажностьДавлениеВетер, м/сВероятность осадков
    02:00Ясно и безоблачно+23°C27 %738 мм0.3 м/с2 %
    05:00Ясно и безоблачно+21°C31 %738 мм0.4 м/с2 %
    08:00Ясно и безоблачно+28°C31 %740 мм0.3 м/с2 %
    11:00Ясно и безоблачно+36°C23 %740 мм0.7 м/с2 %
    14:00Практически безоблачно+40°C17 %739 мм1.7 м/с2 %
    17:00Ясно и безоблачно+42°C14 %738 мм3.4 м/с2 %
    20:00Ясно и безоблачно+35°C19 %738 мм2.7 м/с2 %
    23:00Ясно и безоблачно+29°C29 %739 мм0.9 м/с2 %
Мы используем cookies
Соглашаюсь